Time;durP1;ratioP1;P1;durP2;ratioP2;P2;SDS_P1;SDS_P2;PMS_P1;PMS_P2;Temp;Humidity;BMP_temperature;BMP_pressure;BME280_temperature;BME280_humidity;BME280_pressure;Samples;Min_cycle;Max_cycle;Signal;HPM_P1;HPM_P2
2021/12/05 00:23:59;;;;;;;1.52;1.05;;;;;;;;;;2078111;28;20538;-76
2021/12/05 00:25:23;;;;;;;1.83;1.15;;;;;;;;;;2080067;28;20029;-77
2021/12/05 00:26:47;;;;;;;1.55;1.35;;;;;;;;;;2078438;28;20020;-77
2021/12/05 00:28:33;;;;;;;1.40;1.30;;;;;;;;;;2081896;28;20075;-77
2021/12/05 00:40:52;;;;;;;1.67;1.48;;;;;;;;;;2079482;28;20026;-76
2021/12/05 00:43:06;;;;;;;3.25;0.93;;;;;;;;;;2087428;28;20473;-77
2021/12/05 00:51:06;;;;;;;1.50;1.40;;;;;;;;;;2080745;28;20025;-76
2021/12/05 00:53:55;;;;;;;1.20;1.15;;;;;;;;;;2078607;28;20056;-76
2021/12/05 00:58:56;;;;;;;1.85;1.10;;;;;;;;;;2080574;28;20033;-77
2021/12/05 01:08:59;;;;;;;1.60;1.50;;;;;;;;;;2076777;28;20209;-78
2021/12/05 01:12:14;;;;;;;1.17;1.05;;;;;;;;;;2077844;28;20037;-76
2021/12/05 01:15:01;;;;;;;1.45;1.33;;;;;;;;;;2076939;28;20041;-78
2021/12/05 01:16:20;;;;;;;3.08;1.33;;;;;;;;;;2080502;28;20033;-76
2021/12/05 01:18:07;;;;;;;1.67;1.42;;;;;;;;;;2076887;28;20481;-76
2021/12/05 01:19:22;;;;;;;1.67;1.50;;;;;;;;;;2078759;28;20116;-76
2021/12/05 01:20:42;;;;;;;1.42;1.33;;;;;;;;;;2077616;28;20022;-76
2021/12/05 01:22:11;;;;;;;1.55;1.20;;;;;;;;;;2087658;28;20489;-76
2021/12/05 01:25:35;;;;;;;1.48;1.20;;;;;;;;;;2078309;28;20382;-76
2021/12/05 01:27:17;;;;;;;2.75;1.20;;;;;;;;;;2079768;28;20037;-78
2021/12/05 01:28:57;;;;;;;2.40;1.02;;;;;;;;;;2087908;28;20033;-76
2021/12/05 01:33:45;;;;;;;4.45;1.40;;;;;;;;;;2079324;28;20093;-77
2021/12/05 01:35:13;;;;;;;1.30;1.20;;;;;;;;;;2077799;28;20034;-76
2021/12/05 01:36:41;;;;;;;2.83;1.25;;;;;;;;;;2080272;28;20136;-77
2021/12/05 01:38:12;;;;;;;1.95;1.10;;;;;;;;;;2079424;28;20021;-77
2021/12/05 01:40:18;;;;;;;1.40;1.30;;;;;;;;;;2075879;28;20030;-77
2021/12/05 01:49:52;;;;;;;1.88;1.13;;;;;;;;;;2079967;28;20112;-77
2021/12/05 01:52:28;;;;;;;1.60;1.40;;;;;;;;;;2081868;28;20029;-77
2021/12/05 01:54:15;;;;;;;3.05;1.63;;;;;;;;;;2079460;28;20034;-77
2021/12/05 01:55:53;;;;;;;1.50;1.40;;;;;;;;;;2080897;28;20025;-77
2021/12/05 02:15:39;;;;;;;1.65;1.55;;;;;;;;;;2079722;28;19917;-77
2021/12/05 02:41:33;;;;;;;1.92;1.30;;;;;;;;;;2057464;28;20027;-76
2021/12/05 02:43:19;;;;;;;1.50;1.40;;;;;;;;;;2046303;28;20031;-77
2021/12/05 02:44:32;;;;;;;1.38;1.20;;;;;;;;;;2057960;28;20071;-76
2021/12/05 02:45:53;;;;;;;1.52;1.40;;;;;;;;;;2080270;28;20486;-76
2021/12/05 02:47:14;;;;;;;1.67;1.40;;;;;;;;;;2081133;28;20045;-76
2021/12/05 02:48:36;;;;;;;1.50;1.40;;;;;;;;;;2081256;28;20021;-77
2021/12/05 02:49:56;;;;;;;1.38;1.27;;;;;;;;;;2078205;28;20489;-76
2021/12/05 02:51:17;;;;;;;1.45;1.33;;;;;;;;;;2081291;28;20037;-76
2021/12/05 02:52:39;;;;;;;2.20;1.23;;;;;;;;;;2083255;28;20021;-76
2021/12/05 02:54:13;;;;;;;1.40;1.30;;;;;;;;;;2081233;28;20029;-76
2021/12/05 02:55:38;;;;;;;2.47;1.35;;;;;;;;;;2077412;28;20110;-76
2021/12/05 02:56:58;;;;;;;1.95;1.30;;;;;;;;;;2082367;28;20029;-76
2021/12/05 02:58:29;;;;;;;1.35;1.20;;;;;;;;;;2082372;28;20150;-76
2021/12/05 02:59:53;;;;;;;1.67;1.20;;;;;;;;;;2081823;28;20021;-76
2021/12/05 03:02:40;;;;;;;1.65;1.33;;;;;;;;;;2081916;28;20033;-76
2021/12/05 03:03:59;;;;;;;1.95;1.02;;;;;;;;;;2082123;28;20061;-77
2021/12/05 03:05:21;;;;;;;5.03;1.13;;;;;;;;;;2078262;28;20402;-76
2021/12/05 03:06:50;;;;;;;1.45;1.35;;;;;;;;;;2077157;28;20037;-76
2021/12/05 03:08:08;;;;;;;1.35;1.10;;;;;;;;;;2078872;28;20029;-76
2021/12/05 03:09:27;;;;;;;2.50;1.40;;;;;;;;;;2077088;28;20045;-76
2021/12/05 03:10:47;;;;;;;4.03;1.40;;;;;;;;;;2077415;28;20029;-77
2021/12/05 03:12:09;;;;;;;2.15;1.33;;;;;;;;;;2078960;28;20041;-76
2021/12/05 03:13:28;;;;;;;1.27;1.17;;;;;;;;;;2082139;28;20033;-76
2021/12/05 03:14:48;;;;;;;1.58;1.13;;;;;;;;;;2081086;28;20394;-76
2021/12/05 03:16:09;;;;;;;2.55;1.08;;;;;;;;;;2081597;28;20030;-77
2021/12/05 03:17:28;;;;;;;1.23;1.23;;;;;;;;;;2082568;28;20018;-77
2021/12/05 03:18:47;;;;;;;1.50;1.35;;;;;;;;;;2080633;28;20025;-76
2021/12/05 03:20:06;;;;;;;2.28;1.33;;;;;;;;;;2082886;28;20033;-77
2021/12/05 03:21:24;;;;;;;1.50;1.02;;;;;;;;;;2081382;28;20041;-77
2021/12/05 03:22:44;;;;;;;1.02;1.00;;;;;;;;;;2079042;28;20520;-77
2021/12/05 03:24:04;;;;;;;1.05;0.95;;;;;;;;;;2086797;28;20452;-77
2021/12/05 03:25:23;;;;;;;1.33;1.15;;;;;;;;;;2081755;28;20124;-77
2021/12/05 03:26:44;;;;;;;2.08;1.10;;;;;;;;;;2081332;28;20061;-77
2021/12/05 03:28:03;;;;;;;1.38;1.10;;;;;;;;;;2081182;28;20025;-77
2021/12/05 03:29:22;;;;;;;1.10;1.10;;;;;;;;;;2082787;28;20026;-77
2021/12/05 03:30:41;;;;;;;2.70;1.30;;;;;;;;;;2077704;28;20037;-78
2021/12/05 03:32:01;;;;;;;3.75;1.40;;;;;;;;;;2081736;28;20037;-77
2021/12/05 03:33:20;;;;;;;1.20;1.10;;;;;;;;;;2081924;28;20030;-76
2021/12/05 03:34:38;;;;;;;1.48;1.20;;;;;;;;;;2080958;28;20078;-76
2021/12/05 03:35:58;;;;;;;1.63;1.13;;;;;;;;;;2082046;28;20025;-77
2021/12/05 03:37:16;;;;;;;1.77;1.10;;;;;;;;;;2076429;28;20444;-76
2021/12/05 03:38:36;;;;;;;1.35;1.20;;;;;;;;;;2081413;28;20030;-76
2021/12/05 03:39:55;;;;;;;1.42;1.10;;;;;;;;;;2084282;28;20481;-77
2021/12/05 03:41:15;;;;;;;1.23;1.13;;;;;;;;;;2079783;28;20026;-77
2021/12/05 03:42:34;;;;;;;1.38;1.27;;;;;;;;;;2083355;28;20404;-77
2021/12/05 03:43:54;;;;;;;1.42;1.33;;;;;;;;;;2075397;28;20449;-77
2021/12/05 03:45:17;;;;;;;1.38;1.27;;;;;;;;;;2084946;28;20025;-77
2021/12/05 03:46:37;;;;;;;1.40;0.90;;;;;;;;;;2079917;28;20593;-77
2021/12/05 03:47:56;;;;;;;1.25;1.08;;;;;;;;;;2076583;28;20029;-77
2021/12/05 03:49:15;;;;;;;3.15;1.50;;;;;;;;;;2075876;28;20394;-77
2021/12/05 03:50:35;;;;;;;1.85;1.20;;;;;;;;;;2076941;28;20485;-77
2021/12/05 03:51:57;;;;;;;1.30;1.13;;;;;;;;;;2080192;28;20069;-77
2021/12/05 03:53:17;;;;;;;1.20;1.10;;;;;;;;;;2080787;28;20473;-76
2021/12/05 03:54:36;;;;;;;1.25;1.05;;;;;;;;;;2079453;28;20026;-77
2021/12/05 03:55:56;;;;;;;2.28;1.40;;;;;;;;;;2081074;28;20039;-77
2021/12/05 03:57:15;;;;;;;1.48;1.35;;;;;;;;;;2077597;28;20498;-78
2021/12/05 03:58:38;;;;;;;2.40;1.20;;;;;;;;;;2080956;28;20478;-77
2021/12/05 03:59:57;;;;;;;1.30;1.20;;;;;;;;;;2080194;28;20041;-77
2021/12/05 04:01:16;;;;;;;1.67;1.10;;;;;;;;;;2079950;28;20033;-77
2021/12/05 04:02:35;;;;;;;1.35;1.25;;;;;;;;;;2080215;28;20025;-77
2021/12/05 04:03:55;;;;;;;1.63;1.00;;;;;;;;;;2080991;28;20033;-78
2021/12/05 04:05:13;;;;;;;2.17;1.15;;;;;;;;;;2081114;28;20112;-77
2021/12/05 04:06:32;;;;;;;1.15;1.05;;;;;;;;;;2079149;28;20029;-77
2021/12/05 04:07:52;;;;;;;1.10;1.00;;;;;;;;;;2077981;28;20033;-77
2021/12/05 04:09:12;;;;;;;2.25;1.35;;;;;;;;;;2077469;28;20445;-76
2021/12/05 04:10:31;;;;;;;1.42;1.20;;;;;;;;;;2075909;28;20022;-76
2021/12/05 04:12:01;;;;;;;2.90;1.48;;;;;;;;;;2084195;28;20029;-76
2021/12/05 04:13:19;;;;;;;1.13;1.10;;;;;;;;;;2081109;28;20112;-77
2021/12/05 04:14:40;;;;;;;5.38;1.48;;;;;;;;;;2082052;28;20504;-75
2021/12/05 04:16:00;;;;;;;2.45;1.40;;;;;;;;;;2078909;28;20029;-76
2021/12/05 04:17:20;;;;;;;2.63;1.48;;;;;;;;;;2078914;28;20025;-76
2021/12/05 04:18:39;;;;;;;2.40;1.48;;;;;;;;;;2079273;28;20025;-77
2021/12/05 04:19:58;;;;;;;2.28;1.35;;;;;;;;;;2080501;28;20018;-76
2021/12/05 04:21:17;;;;;;;2.85;1.35;;;;;;;;;;2079376;28;20037;-77
2021/12/05 04:22:36;;;;;;;2.22;1.40;;;;;;;;;;2075933;28;20037;-76
2021/12/05 04:23:56;;;;;;;1.30;1.20;;;;;;;;;;2077889;28;20037;-76
2021/12/05 04:25:18;;;;;;;3.00;1.48;;;;;;;;;;2079881;28;20037;-77
2021/12/05 04:26:38;;;;;;;1.67;1.58;;;;;;;;;;2085351;28;20057;-77
2021/12/05 04:27:57;;;;;;;1.35;1.13;;;;;;;;;;2082069;28;20037;-76
2021/12/05 04:29:16;;;;;;;1.95;1.85;;;;;;;;;;2079452;28;20146;-76
2021/12/05 04:30:35;;;;;;;2.35;1.30;;;;;;;;;;2079087;28;20033;-77
2021/12/05 04:31:54;;;;;;;1.70;1.60;;;;;;;;;;2080806;28;20030;-76
2021/12/05 04:33:13;;;;;;;2.47;1.30;;;;;;;;;;2080753;28;20037;-76
2021/12/05 04:34:33;;;;;;;2.33;1.80;;;;;;;;;;2080144;28;20018;-77
2021/12/05 04:35:52;;;;;;;2.25;1.48;;;;;;;;;;2077876;28;20018;-77
2021/12/05 04:37:11;;;;;;;2.75;1.95;;;;;;;;;;2075454;28;20025;-77
2021/12/05 04:38:30;;;;;;;1.63;1.52;;;;;;;;;;2076124;28;20033;-77
2021/12/05 04:39:49;;;;;;;1.77;1.67;;;;;;;;;;2077335;28;20037;-78
2021/12/05 04:41:07;;;;;;;1.83;1.38;;;;;;;;;;2079767;28;20026;-77
2021/12/05 04:42:27;;;;;;;2.53;1.42;;;;;;;;;;2076031;28;20034;-76
2021/12/05 04:43:47;;;;;;;3.00;1.40;;;;;;;;;;2077274;28;20045;-77
2021/12/05 04:45:08;;;;;;;1.58;1.48;;;;;;;;;;2076909;28;20049;-77
2021/12/05 04:46:27;;;;;;;1.50;1.40;;;;;;;;;;2085381;28;20021;-77
2021/12/05 04:47:48;;;;;;;2.90;1.30;;;;;;;;;;2079029;28;20033;-76
2021/12/05 04:49:07;;;;;;;3.15;1.65;;;;;;;;;;2078326;28;20069;-77
2021/12/05 04:50:27;;;;;;;1.17;1.08;;;;;;;;;;2076380;28;20032;-77
2021/12/05 04:51:46;;;;;;;1.60;1.30;;;;;;;;;;2078321;28;20038;-77
2021/12/05 04:53:05;;;;;;;1.25;1.15;;;;;;;;;;2075855;28;20041;-78
2021/12/05 04:54:24;;;;;;;1.20;1.10;;;;;;;;;;2077225;28;20026;-77
2021/12/05 04:55:43;;;;;;;1.50;1.40;;;;;;;;;;2078698;28;20120;-77
2021/12/05 04:57:02;;;;;;;1.35;1.00;;;;;;;;;;2078452;28;20025;-76
2021/12/05 04:58:22;;;;;;;1.88;1.40;;;;;;;;;;2084458;28;20025;-78
2021/12/05 04:59:46;;;;;;;2.15;1.20;;;;;;;;;;2082583;28;20065;-76
2021/12/05 05:01:06;;;;;;;1.23;1.13;;;;;;;;;;2080012;28;20469;-77
2021/12/05 05:02:25;;;;;;;1.42;1.30;;;;;;;;;;2079390;28;20386;-77
2021/12/05 05:03:43;;;;;;;2.33;1.35;;;;;;;;;;2080224;28;20029;-77
2021/12/05 05:05:03;;;;;;;2.88;1.25;;;;;;;;;;2078725;28;20034;-77
2021/12/05 05:06:22;;;;;;;1.45;1.23;;;;;;;;;;2077078;28;20055;-77
2021/12/05 05:07:42;;;;;;;3.92;1.48;;;;;;;;;;2078935;28;20499;-77
2021/12/05 05:09:02;;;;;;;1.75;1.40;;;;;;;;;;2077086;28;20030;-77
2021/12/05 05:10:26;;;;;;;4.18;1.42;;;;;;;;;;2080155;28;20037;-78
2021/12/05 05:11:45;;;;;;;1.63;1.20;;;;;;;;;;2089357;28;20037;-77
2021/12/05 05:13:05;;;;;;;1.40;1.30;;;;;;;;;;2078268;28;20033;-77
2021/12/05 05:14:24;;;;;;;1.63;1.50;;;;;;;;;;2080497;28;20069;-76
2021/12/05 05:15:42;;;;;;;4.38;1.50;;;;;;;;;;2080235;28;20030;-77
2021/12/05 05:17:01;;;;;;;2.85;1.50;;;;;;;;;;2078697;28;20017;-76
2021/12/05 05:18:22;;;;;;;4.07;1.60;;;;;;;;;;2078157;28;20033;-77
2021/12/05 05:19:47;;;;;;;2.30;1.73;;;;;;;;;;2079660;28;20025;-77
2021/12/05 05:21:15;;;;;;;1.50;1.33;;;;;;;;;;2079517;28;20053;-77
2021/12/05 05:22:45;;;;;;;1.67;1.40;;;;;;;;;;2077771;28;20120;-77
2021/12/05 05:27:27;;;;;;;2.53;1.75;;;;;;;;;;2079349;28;20029;-78
2021/12/05 05:46:00;;;;;;;1.73;1.63;;;;;;;;;;2078979;28;20033;-77
2021/12/05 05:50:17;;;;;;;2.38;1.65;;;;;;;;;;2079309;28;20041;-77
2021/12/05 05:51:36;;;;;;;1.70;1.35;;;;;;;;;;2078134;28;20030;-77
2021/12/05 05:52:55;;;;;;;1.58;1.48;;;;;;;;;;2079319;28;20033;-77
2021/12/05 05:54:14;;;;;;;1.90;1.55;;;;;;;;;;2078974;28;20049;-77
2021/12/05 05:55:34;;;;;;;1.90;1.75;;;;;;;;;;2075029;28;20529;-77
2021/12/05 05:57:00;;;;;;;3.00;1.77;;;;;;;;;;2079252;28;20053;-77
2021/12/05 05:58:23;;;;;;;2.28;1.50;;;;;;;;;;2079308;28;20025;-77
2021/12/05 05:59:49;;;;;;;2.28;1.70;;;;;;;;;;2077556;28;20025;-77
2021/12/05 06:01:19;;;;;;;1.58;1.38;;;;;;;;;;2077444;28;20025;-76
2021/12/05 06:04:16;;;;;;;4.10;1.70;;;;;;;;;;2077305;28;20362;-77
2021/12/05 06:05:35;;;;;;;2.35;2.17;;;;;;;;;;2078569;28;20045;-76
2021/12/05 06:06:54;;;;;;;3.10;1.60;;;;;;;;;;2072256;28;20062;-77
2021/12/05 06:08:13;;;;;;;2.05;1.90;;;;;;;;;;2080060;28;20045;-77
2021/12/05 06:09:32;;;;;;;1.80;1.70;;;;;;;;;;2078188;28;20129;-76
2021/12/05 06:10:52;;;;;;;2.60;1.55;;;;;;;;;;2079315;28;20057;-76
2021/12/05 06:12:11;;;;;;;2.15;1.63;;;;;;;;;;2079412;28;20041;-77
2021/12/05 06:13:31;;;;;;;1.65;1.55;;;;;;;;;;2077273;28;20025;-76
2021/12/05 06:14:49;;;;;;;1.95;1.67;;;;;;;;;;2074341;28;20038;-75
2021/12/05 06:16:09;;;;;;;3.45;1.60;;;;;;;;;;2079420;28;20033;-76
2021/12/05 06:17:28;;;;;;;2.35;1.30;;;;;;;;;;2081091;28;20394;-78
2021/12/05 06:18:47;;;;;;;1.67;1.30;;;;;;;;;;2075374;28;20038;-78
2021/12/05 06:20:16;;;;;;;2.65;1.40;;;;;;;;;;2075283;28;20025;-77
2021/12/05 06:21:35;;;;;;;1.95;1.55;;;;;;;;;;2077355;28;20061;-77
2021/12/05 06:22:54;;;;;;;1.92;1.75;;;;;;;;;;2078137;28;20025;-76
2021/12/05 06:24:13;;;;;;;3.42;1.75;;;;;;;;;;2076074;28;20030;-76
2021/12/05 06:25:34;;;;;;;1.88;1.75;;;;;;;;;;2077985;28;20084;-80
2021/12/05 06:26:53;;;;;;;1.98;1.70;;;;;;;;;;2079298;28;20033;-76
2021/12/05 06:28:14;;;;;;;3.03;1.40;;;;;;;;;;2074142;28;20458;-77
2021/12/05 06:29:39;;;;;;;3.15;1.58;;;;;;;;;;2076090;28;20068;-77
2021/12/05 06:31:08;;;;;;;1.60;1.50;;;;;;;;;;2074201;28;20053;-76
2021/12/05 06:38:05;;;;;;;1.50;1.38;;;;;;;;;;2075410;28;20322;-76
2021/12/05 06:47:14;;;;;;;1.52;1.42;;;;;;;;;;2078005;28;20030;-78
2021/12/05 06:48:34;;;;;;;1.77;1.50;;;;;;;;;;2076600;28;20033;-78
2021/12/05 06:49:54;;;;;;;3.47;1.50;;;;;;;;;;2073048;28;20069;-78
2021/12/05 06:51:16;;;;;;;1.58;1.45;;;;;;;;;;2074461;28;20065;-77
2021/12/05 06:52:34;;;;;;;2.65;1.40;;;;;;;;;;2076190;28;20065;-76
2021/12/05 06:53:54;;;;;;;1.98;1.48;;;;;;;;;;2075588;28;20021;-76
2021/12/05 06:55:13;;;;;;;1.48;1.38;;;;;;;;;;2075103;28;20034;-77
2021/12/05 06:56:32;;;;;;;2.35;1.50;;;;;;;;;;2076351;28;20026;-76
2021/12/05 06:57:51;;;;;;;1.30;1.20;;;;;;;;;;2076739;28;20029;-75
2021/12/05 06:59:10;;;;;;;1.70;1.55;;;;;;;;;;2079182;28;20497;-76
2021/12/05 07:00:30;;;;;;;2.08;1.70;;;;;;;;;;2073338;28;20668;-76
2021/12/05 07:01:49;;;;;;;2.28;1.65;;;;;;;;;;2083319;28;20037;-76
2021/12/05 07:03:10;;;;;;;1.65;1.55;;;;;;;;;;2077223;28;20029;-76
2021/12/05 07:06:07;;;;;;;5.35;1.58;;;;;;;;;;2082187;28;20464;-78
2021/12/05 07:07:29;;;;;;;1.25;1.25;;;;;;;;;;2079404;28;20686;-76
2021/12/05 07:08:48;;;;;;;2.97;1.77;;;;;;;;;;2077990;28;20094;-75
2021/12/05 07:10:08;;;;;;;2.47;1.50;;;;;;;;;;2076620;28;20025;-75
2021/12/05 07:13:37;;;;;;;3.92;1.10;;;;;;;;;;2079183;28;20041;-76
2021/12/05 07:14:51;;;;;;;3.10;1.50;;;;;;;;;;2080456;28;20510;-76
2021/12/05 07:19:48;;;;;;;2.80;1.60;;;;;;;;;;2080336;28;20041;-76
2021/12/05 07:20:40;;;;;;;1.60;1.50;;;;;;;;;;2075814;28;20474;-75
2021/12/05 07:22:03;;;;;;;2.72;1.42;;;;;;;;;;2078321;28;20484;-77
2021/12/05 07:24:14;;;;;;;;;;;;;;;;;;2081674;28;20174;-75
2021/12/05 07:25:11;;;;;;;1.45;1.35;;;;;;;;;;2078874;28;20369;-76
2021/12/05 07:26:48;;;;;;;1.48;1.38;;;;;;;;;;2090255;28;20033;-75
2021/12/05 07:42:42;;;;;;;1.50;1.40;;;;;;;;;;2081676;28;20048;-75
2021/12/05 07:44:01;;;;;;;2.05;1.85;;;;;;;;;;2080550;28;20037;-76
2021/12/05 07:45:26;;;;;;;1.77;1.55;;;;;;;;;;2076170;28;20069;-76
2021/12/05 07:46:46;;;;;;;1.40;1.30;;;;;;;;;;2077772;28;20030;-76
2021/12/05 07:48:15;;;;;;;2.10;1.30;;;;;;;;;;2080535;28;20041;-76
2021/12/05 07:49:34;;;;;;;1.75;1.45;;;;;;;;;;2079950;28;20108;-76
2021/12/05 07:51:09;;;;;;;1.55;1.45;;;;;;;;;;2080784;28;20393;-77
2021/12/05 07:52:29;;;;;;;2.55;1.70;;;;;;;;;;2080340;28;20038;-77
2021/12/05 07:54:27;;;;;;;1.95;1.27;;;;;;;;;;2075288;28;20061;-76
2021/12/05 07:55:37;;;;;;;2.20;1.40;;;;;;;;;;2079640;28;20029;-76
2021/12/05 07:57:51;;;;;;;1.60;1.50;;;;;;;;;;2079204;28;20482;-75
2021/12/05 08:00:16;;;;;;;1.40;1.30;;;;;;;;;;2080368;28;20026;-76
2021/12/05 08:15:07;;;;;;;2.08;1.60;;;;;;;;;;2069329;28;20031;-75
2021/12/05 08:16:29;;;;;;;3.50;1.60;;;;;;;;;;2079693;28;20026;-75
2021/12/05 08:17:53;;;;;;;1.55;1.45;;;;;;;;;;2079964;28;20033;-75
2021/12/05 08:19:12;;;;;;;3.08;1.73;;;;;;;;;;2078097;28;20059;-75
2021/12/05 08:20:33;;;;;;;2.10;1.52;;;;;;;;;;2077132;28;20045;-75
2021/12/05 08:21:55;;;;;;;1.60;1.50;;;;;;;;;;2077565;28;20033;-75
2021/12/05 08:23:16;;;;;;;1.63;1.52;;;;;;;;;;2076671;28;21186;-76
2021/12/05 08:24:40;;;;;;;1.52;1.42;;;;;;;;;;2080600;28;20025;-76
2021/12/05 08:26:21;;;;;;;2.78;1.50;;;;;;;;;;2081304;28;20041;-76
2021/12/05 08:27:49;;;;;;;2.10;1.75;;;;;;;;;;2078507;28;20034;-75
2021/12/05 08:29:15;;;;;;;2.65;1.70;;;;;;;;;;2086682;28;20037;-75
2021/12/05 08:30:36;;;;;;;1.35;1.20;;;;;;;;;;2079914;28;20409;-79
2021/12/05 08:32:08;;;;;;;2.30;1.45;;;;;;;;;;2076694;28;20033;-75
2021/12/05 09:23:33;;;;;;;2.30;2.10;;;;;;;;;;2080906;28;20128;-75
2021/12/05 09:38:35;;;;;;;2.42;2.20;;;;;;;;;;2054390;28;20109;-76
2021/12/05 10:06:50;;;;;;;3.58;2.15;;;;;;;;;;2080158;28;20021;-75
2021/12/05 10:11:37;;;;;;;2.83;2.03;;;;;;;;;;2078826;28;20513;-75
2021/12/05 10:16:20;;;;;;;2.28;2.10;;;;;;;;;;2078926;28;20034;-74
2021/12/05 10:34:03;;;;;;;3.08;2.53;;;;;;;;;;2078720;28;20121;-75
2021/12/05 10:35:52;;;;;;;2.30;2.10;;;;;;;;;;2078030;28;20029;-74
2021/12/05 10:37:14;;;;;;;2.63;2.22;;;;;;;;;;2079059;28;20100;-75
2021/12/05 10:38:42;;;;;;;2.50;2.15;;;;;;;;;;2076955;28;20108;-76
2021/12/05 10:40:01;;;;;;;2.17;2.00;;;;;;;;;;2074977;28;20037;-74
2021/12/05 10:42:44;;;;;;;2.20;2.00;;;;;;;;;;2079400;28;20030;-75
2021/12/05 10:44:05;;;;;;;2.22;2.03;;;;;;;;;;2077373;28;20038;-75
2021/12/05 10:45:50;;;;;;;4.45;2.80;;;;;;;;;;2074974;28;20038;-74
2021/12/05 10:47:10;;;;;;;3.22;2.08;;;;;;;;;;2079195;28;20034;-74
2021/12/05 10:48:33;;;;;;;2.75;1.77;;;;;;;;;;2077763;28;20038;-75
2021/12/05 10:49:52;;;;;;;4.05;2.75;;;;;;;;;;2079817;28;20417;-76
2021/12/05 10:51:27;;;;;;;2.65;1.90;;;;;;;;;;2079163;28;20087;-74
2021/12/05 10:52:49;;;;;;;2.50;2.30;;;;;;;;;;2080725;28;20025;-75
2021/12/05 10:54:12;;;;;;;3.40;2.60;;;;;;;;;;2079156;28;20038;-77
2021/12/05 10:55:31;;;;;;;2.10;1.95;;;;;;;;;;2083541;28;20022;-74
2021/12/05 10:56:53;;;;;;;3.50;1.98;;;;;;;;;;2081577;28;20029;-74
2021/12/05 10:58:13;;;;;;;2.33;2.10;;;;;;;;;;2078436;28;20037;-75
2021/12/05 10:59:37;;;;;;;2.13;1.83;;;;;;;;;;2078399;28;20070;-76
2021/12/05 11:01:06;;;;;;;3.38;1.92;;;;;;;;;;2080035;28;20022;-75
2021/12/05 11:02:30;;;;;;;2.30;1.90;;;;;;;;;;2078804;28;20108;-74
2021/12/05 11:03:51;;;;;;;1.77;1.67;;;;;;;;;;2079945;28;20072;-74
2021/12/05 11:05:10;;;;;;;5.00;2.10;;;;;;;;;;2082065;28;20509;-75
2021/12/05 11:06:31;;;;;;;2.08;1.95;;;;;;;;;;2080891;28;20112;-75
2021/12/05 11:07:50;;;;;;;2.40;2.20;;;;;;;;;;2077332;28;20037;-75
2021/12/05 11:09:13;;;;;;;1.83;1.73;;;;;;;;;;2077816;28;20519;-74
2021/12/05 11:10:41;;;;;;;1.95;1.80;;;;;;;;;;2076935;28;20405;-75
2021/12/05 11:12:10;;;;;;;1.90;1.80;;;;;;;;;;2087649;28;20130;-74
2021/12/05 11:13:29;;;;;;;1.80;1.70;;;;;;;;;;2083767;28;20021;-76
2021/12/05 11:14:49;;;;;;;2.13;1.92;;;;;;;;;;2080253;28;20108;-75
2021/12/05 11:16:26;;;;;;;2.03;1.92;;;;;;;;;;2080013;28;20018;-75
2021/12/05 11:17:49;;;;;;;1.67;1.50;;;;;;;;;;2080003;28;20045;-74
2021/12/05 11:19:16;;;;;;;2.50;2.00;;;;;;;;;;2081053;28;20041;-76
2021/12/05 11:20:37;;;;;;;2.08;1.80;;;;;;;;;;2081873;28;20022;-74
2021/12/05 11:21:57;;;;;;;1.90;1.80;;;;;;;;;;2080336;28;20029;-73
2021/12/05 11:23:17;;;;;;;1.95;1.77;;;;;;;;;;2080860;28;20108;-75
2021/12/05 11:24:39;;;;;;;2.08;1.90;;;;;;;;;;2080497;28;20444;-76
2021/12/05 11:26:14;;;;;;;1.63;1.52;;;;;;;;;;2086933;28;20029;-74
2021/12/05 11:27:44;;;;;;;3.00;1.80;;;;;;;;;;2079662;28;20025;-74
2021/12/05 11:29:03;;;;;;;2.05;1.70;;;;;;;;;;2080738;28;20041;-75
2021/12/05 11:30:31;;;;;;;1.77;1.65;;;;;;;;;;2080608;28;20489;-75
2021/12/05 11:31:51;;;;;;;1.77;1.67;;;;;;;;;;2080064;28;20045;-75
2021/12/05 11:33:19;;;;;;;2.05;1.95;;;;;;;;;;2079242;28;20064;-74
2021/12/05 11:34:39;;;;;;;4.38;2.22;;;;;;;;;;2080584;28;20026;-77
2021/12/05 11:36:00;;;;;;;1.83;1.70;;;;;;;;;;2080322;28;20469;-74
2021/12/05 11:37:19;;;;;;;1.77;1.67;;;;;;;;;;2079038;28;20087;-75
2021/12/05 11:38:38;;;;;;;1.88;1.77;;;;;;;;;;2076894;28;20030;-74
2021/12/05 11:40:05;;;;;;;1.58;1.48;;;;;;;;;;2079242;28;20530;-74
2021/12/05 11:41:24;;;;;;;2.00;1.75;;;;;;;;;;2079634;28;20033;-75
2021/12/05 11:42:54;;;;;;;1.88;1.77;;;;;;;;;;2081537;28;20470;-76
2021/12/05 11:44:16;;;;;;;2.50;1.90;;;;;;;;;;2079958;28;20038;-75
2021/12/05 11:46:01;;;;;;;1.85;1.73;;;;;;;;;;2079448;28;20045;-74
2021/12/05 11:47:22;;;;;;;2.10;1.90;;;;;;;;;;2080233;28;20116;-74
2021/12/05 11:48:46;;;;;;;2.05;1.95;;;;;;;;;;2079494;28;20038;-74
2021/12/05 11:50:06;;;;;;;2.95;1.85;;;;;;;;;;2080274;28;20022;-76
2021/12/05 11:51:34;;;;;;;2.42;2.15;;;;;;;;;;2080464;28;20478;-75
2021/12/05 11:52:53;;;;;;;3.20;2.08;;;;;;;;;;2080231;28;20079;-75
2021/12/05 11:54:21;;;;;;;4.57;2.05;;;;;;;;;;2076233;28;20033;-76
2021/12/05 11:55:43;;;;;;;1.70;1.60;;;;;;;;;;2084727;28;20517;-75
2021/12/05 11:57:09;;;;;;;2.95;2.13;;;;;;;;;;2078285;28;20029;-76
2021/12/05 11:58:28;;;;;;;2.17;1.65;;;;;;;;;;2085072;28;20096;-75
2021/12/05 11:59:52;;;;;;;3.38;2.25;;;;;;;;;;2081341;28;20037;-77
2021/12/05 12:01:13;;;;;;;4.55;2.00;;;;;;;;;;2075863;28;20639;-75
2021/12/05 12:02:34;;;;;;;4.28;1.67;;;;;;;;;;2081497;28;20022;-75
2021/12/05 12:03:54;;;;;;;2.97;1.80;;;;;;;;;;2079310;28;20041;-77
2021/12/05 12:05:25;;;;;;;2.33;2.13;;;;;;;;;;2079899;28;20489;-77
2021/12/05 12:06:45;;;;;;;3.55;1.88;;;;;;;;;;2081295;28;20037;-76
2021/12/05 12:08:07;;;;;;;1.98;1.88;;;;;;;;;;2079321;28;20021;-77
2021/12/05 12:09:26;;;;;;;2.85;1.77;;;;;;;;;;2077343;28;20029;-76
2021/12/05 12:10:47;;;;;;;2.10;2.00;;;;;;;;;;2076343;28;20038;-75
2021/12/05 12:12:07;;;;;;;1.95;1.85;;;;;;;;;;2080323;28;20072;-76
2021/12/05 12:13:29;;;;;;;2.15;2.05;;;;;;;;;;2077620;28;20022;-77
2021/12/05 12:14:48;;;;;;;2.38;1.60;;;;;;;;;;2076585;28;20021;-76
2021/12/05 12:16:12;;;;;;;2.63;2.10;;;;;;;;;;2077797;28;20955;-76
2021/12/05 12:17:31;;;;;;;2.92;1.75;;;;;;;;;;2080663;28;20037;-76
2021/12/05 12:18:51;;;;;;;2.85;1.90;;;;;;;;;;2078918;28;20064;-77
2021/12/05 12:20:12;;;;;;;2.35;2.00;;;;;;;;;;2077525;28;20108;-75
2021/12/05 12:21:41;;;;;;;4.10;1.98;;;;;;;;;;2080635;28;20030;-78
2021/12/05 12:23:00;;;;;;;2.20;1.88;;;;;;;;;;2079551;28;20112;-76
2021/12/05 12:24:19;;;;;;;2.35;2.10;;;;;;;;;;2081478;28;20037;-76
2021/12/05 12:25:39;;;;;;;2.60;1.80;;;;;;;;;;2074868;28;20037;-76
2021/12/05 12:26:58;;;;;;;2.67;1.75;;;;;;;;;;2080548;28;20025;-79
2021/12/05 12:28:18;;;;;;;1.80;1.70;;;;;;;;;;2075899;28;20786;-79
2021/12/05 12:29:38;;;;;;;2.65;2.05;;;;;;;;;;2075010;28;20606;-76
2021/12/05 12:30:59;;;;;;;1.95;1.85;;;;;;;;;;2075648;28;20033;-79
2021/12/05 12:32:22;;;;;;;2.03;1.80;;;;;;;;;;2074273;28;20718;-77
2021/12/05 12:33:43;;;;;;;3.10;1.70;;;;;;;;;;2082319;28;20024;-78
2021/12/05 12:35:07;;;;;;;2.13;1.75;;;;;;;;;;2079048;28;20030;-77
2021/12/05 12:36:49;;;;;;;1.92;1.75;;;;;;;;;;2084120;28;20037;-76
2021/12/05 12:38:13;;;;;;;2.35;1.90;;;;;;;;;;2078039;28;20025;-76
2021/12/05 12:39:51;;;;;;;2.50;2.30;;;;;;;;;;2085161;28;20525;-76
2021/12/05 12:41:11;;;;;;;3.38;1.77;;;;;;;;;;2079663;28;20025;-79
2021/12/05 12:42:37;;;;;;;2.22;1.92;;;;;;;;;;2074585;28;20591;-79
2021/12/05 12:44:04;;;;;;;3.22;2.38;;;;;;;;;;2079664;28;20025;-77
2021/12/05 12:45:23;;;;;;;2.28;1.80;;;;;;;;;;2079360;28;20030;-78
2021/12/05 12:46:45;;;;;;;3.28;2.03;;;;;;;;;;2079072;28;20448;-78
2021/12/05 12:48:08;;;;;;;2.70;1.88;;;;;;;;;;2079505;28;20056;-79
2021/12/05 12:49:31;;;;;;;1.83;1.70;;;;;;;;;;2079978;28;20486;-79
2021/12/05 12:50:51;;;;;;;2.45;1.95;;;;;;;;;;2084752;28;20065;-79
2021/12/05 12:52:11;;;;;;;1.50;1.40;;;;;;;;;;2079835;28;20045;-79
2021/12/05 12:53:37;;;;;;;1.70;1.60;;;;;;;;;;2073997;28;20029;-79
2021/12/05 12:54:57;;;;;;;4.03;1.48;;;;;;;;;;2077588;28;20041;-78
2021/12/05 12:56:22;;;;;;;2.10;1.90;;;;;;;;;;2076777;28;20516;-78
2021/12/05 12:57:41;;;;;;;1.52;1.42;;;;;;;;;;2078432;28;20112;-77
2021/12/05 12:59:02;;;;;;;1.92;1.75;;;;;;;;;;2077826;28;20033;-79
2021/12/05 13:00:25;;;;;;;2.60;2.40;;;;;;;;;;2076632;28;20022;-79
2021/12/05 13:03:28;;;;;;;2.22;1.90;;;;;;;;;;2079338;28;20069;-78
2021/12/05 13:11:16;;;;;;;2.63;1.70;;;;;;;;;;2079859;28;20041;-77
2021/12/05 13:12:50;;;;;;;2.70;1.70;;;;;;;;;;2079587;28;20640;-78
2021/12/05 13:14:09;;;;;;;3.53;1.90;;;;;;;;;;2073525;28;21358;-77
2021/12/05 13:15:34;;;;;;;2.13;1.92;;;;;;;;;;2076469;28;20029;-77
2021/12/05 13:16:55;;;;;;;2.60;1.60;;;;;;;;;;2074168;28;20034;-79
2021/12/05 13:18:14;;;;;;;1.95;1.85;;;;;;;;;;2074980;28;20498;-78
2021/12/05 13:19:33;;;;;;;2.00;1.80;;;;;;;;;;2075538;28;20065;-77
2021/12/05 13:21:01;;;;;;;5.55;1.70;;;;;;;;;;2076188;28;20025;-77
2021/12/05 13:22:21;;;;;;;1.73;1.63;;;;;;;;;;2075891;28;20029;-77
2021/12/05 13:23:45;;;;;;;2.55;1.50;;;;;;;;;;2075274;28;20041;-78
2021/12/05 13:25:05;;;;;;;1.75;1.33;;;;;;;;;;2075454;28;20030;-77
2021/12/05 13:26:33;;;;;;;3.33;1.80;;;;;;;;;;2083295;28;20040;-76
2021/12/05 13:27:52;;;;;;;2.10;1.80;;;;;;;;;;2079565;28;20401;-76
2021/12/05 13:29:14;;;;;;;2.00;1.52;;;;;;;;;;2076998;28;20046;-76
2021/12/05 13:30:34;;;;;;;1.88;1.35;;;;;;;;;;2075889;28;20029;-78
2021/12/05 13:31:56;;;;;;;2.03;1.50;;;;;;;;;;2075654;28;20029;-77